Bridgeton, North Carolina
Current Conditions -  °F | °C
As of 3:54 PM on Thursday 27 Nov 2014 (Local Time) from KEWN Reporting Station
Overcast Overcast  
Wind Chill: 50°   Ceiling: 2500
Heat Index: 50°   Visibility: 10mi
Dew Point: 42°   Wind: 17mph
Humidity: 74%   Direction: 320°NW
Pressure: 30.04"   Gusts: 22mph
Location:  35.12°N, 77.02°W
Report Text: KEWN 272054Z 32015G19KT 10SM SCT019 BKN025 OVC042 10/06 A3004 RMK AO2 SLP173 T01000056 51021
Loading
Personal Weather Stations






























Interactive Weather Map New forecast layout! Learn more

10-Day Weather Forecast

Advertisements
Track Severe Weather on mobile